createdAt,value
2019-01-25T00:00:26.494Z,-3.1
2019-01-25T00:01:27.211Z,-3.2
2019-01-25T00:02:27.918Z,-3.2
2019-01-25T00:03:28.633Z,-3.1
2019-01-25T00:04:29.364Z,-3.2
2019-01-25T00:05:30.085Z,-3.1
2019-01-25T00:06:30.800Z,-3.1
2019-01-25T00:07:31.520Z,-3.1
2019-01-25T00:08:32.288Z,-3.1
2019-01-25T00:09:32.999Z,-3.2
2019-01-25T00:10:33.700Z,-3.2
2019-01-25T00:11:34.410Z,-3.2
2019-01-25T00:12:35.104Z,-3.3
2019-01-25T00:13:35.814Z,-3.2
2019-01-25T00:14:36.512Z,-3.2
2019-01-25T00:15:37.214Z,-3.3
2019-01-25T00:16:37.939Z,-3.3
2019-01-25T00:17:38.661Z,-3.3
2019-01-25T00:18:39.383Z,-3.3
2019-01-25T00:19:40.413Z,-3.2
2019-01-25T00:20:41.129Z,-3.2
2019-01-25T00:21:41.849Z,-3.2
2019-01-25T00:22:42.556Z,-3.2
2019-01-25T00:23:43.261Z,-3.3
2019-01-25T00:24:43.962Z,-3.2
2019-01-25T00:25:44.670Z,-3.3
2019-01-25T00:26:45.385Z,-3.2
2019-01-25T00:27:46.106Z,-3.1
2019-01-25T00:28:46.892Z,-3.1
2019-01-25T00:29:47.510Z,-3.1
2019-01-25T00:30:48.218Z,-3.1
2019-01-25T00:31:48.921Z,-3.1
2019-01-25T00:32:49.908Z,-3.2
2019-01-25T00:33:50.622Z,-3.1
2019-01-25T00:34:51.328Z,-3.2
2019-01-25T00:35:52.061Z,-3.2
2019-01-25T00:36:52.772Z,-3.3
2019-01-25T00:37:53.489Z,-3.3
2019-01-25T00:38:54.184Z,-3.1
2019-01-25T00:39:54.893Z,-3.3
2019-01-25T00:40:55.645Z,-3.1
2019-01-25T00:41:56.354Z,-3.2
2019-01-25T00:42:57.061Z,-3.1
2019-01-25T00:43:57.780Z,-3.2
2019-01-25T00:44:58.487Z,-3.2
2019-01-25T00:45:59.188Z,-3.1
2019-01-25T00:46:59.894Z,-3.2
2019-01-25T00:48:00.611Z,-3.2
2019-01-25T00:49:01.340Z,-3.3
2019-01-25T00:50:02.039Z,-3.3
2019-01-25T00:51:02.744Z,-3.2
2019-01-25T00:52:03.494Z,-3.2
2019-01-25T00:53:04.208Z,-3.2
2019-01-25T00:54:04.926Z,-3.3
2019-01-25T00:55:05.634Z,-3.3
2019-01-25T00:56:06.345Z,-3.4
2019-01-25T00:57:07.044Z,-3.3
2019-01-25T00:58:07.903Z,-3.3
2019-01-25T00:59:08.599Z,-3.3
2019-01-25T01:00:09.570Z,-3.4
2019-01-25T01:01:10.289Z,-3.4
2019-01-25T01:02:11.012Z,-3.3
2019-01-25T01:03:11.774Z,-3.3
2019-01-25T01:04:12.516Z,-3.3
2019-01-25T01:05:13.214Z,-3.3
2019-01-25T01:06:13.935Z,-3.3
2019-01-25T01:07:14.647Z,-3.3
2019-01-25T01:08:15.371Z,-3.4
2019-01-25T01:09:16.088Z,-3.4
2019-01-25T01:10:16.817Z,-3.4
2019-01-25T01:11:17.531Z,-3.3
2019-01-25T01:12:18.229Z,-3.4
2019-01-25T01:13:18.987Z,-3.4
2019-01-25T01:14:19.695Z,-3.3
2019-01-25T01:15:20.670Z,-3.3
2019-01-25T01:16:21.372Z,-3.2
2019-01-25T01:17:22.095Z,-3.2
2019-01-25T01:18:22.818Z,-3.2
2019-01-25T01:19:23.525Z,-3.4
2019-01-25T01:20:24.232Z,-3.3
2019-01-25T01:21:25.192Z,-3.4
2019-01-25T01:22:25.894Z,-3.3
2019-01-25T01:23:26.609Z,-3.4
2019-01-25T01:24:27.568Z,-3.4
2019-01-25T01:25:28.273Z,-3.4
2019-01-25T01:26:29.002Z,-3.4
2019-01-25T01:27:29.853Z,-3.4
2019-01-25T01:28:30.560Z,-3.3
2019-01-25T01:29:31.283Z,-3.4
2019-01-25T01:30:31.985Z,-3.3
2019-01-25T01:31:32.698Z,-3.3
2019-01-25T01:32:33.448Z,-3.4
2019-01-25T01:33:34.155Z,-3.3
2019-01-25T01:34:34.897Z,-3.3
2019-01-25T01:35:35.570Z,-3.4
2019-01-25T01:36:36.266Z,-3.4
2019-01-25T01:37:37.227Z,-3.3
2019-01-25T01:38:37.936Z,-3.3
2019-01-25T01:39:38.667Z,-3.3
2019-01-25T01:40:39.364Z,-3.3
2019-01-25T01:41:40.095Z,-3.4
2019-01-25T01:42:40.794Z,-3.3
2019-01-25T01:43:41.488Z,-3.3
2019-01-25T01:44:42.462Z,-3.3
2019-01-25T01:45:43.157Z,-3.2
2019-01-25T01:46:43.870Z,-3.3
2019-01-25T01:47:44.579Z,-3.3
2019-01-25T01:48:45.278Z,-3.2
2019-01-25T01:49:46.256Z,-3.2
2019-01-25T01:50:46.946Z,-3.3
2019-01-25T01:51:47.686Z,-3.2
2019-01-25T01:52:48.392Z,-3.2
2019-01-25T01:53:49.099Z,-3.2
2019-01-25T01:54:49.823Z,-3.3
2019-01-25T01:55:50.556Z,-3.2
2019-01-25T01:56:51.253Z,-3.3
2019-01-25T01:57:52.232Z,-3.3
2019-01-25T01:58:52.931Z,-3.3
2019-01-25T01:59:53.631Z,-3.4
2019-01-25T02:00:54.344Z,-3.3
2019-01-25T02:01:55.064Z,-3.3
2019-01-25T02:02:55.784Z,-3.3
2019-01-25T02:03:56.485Z,-3.3
2019-01-25T02:04:57.240Z,-3.4
2019-01-25T02:05:57.967Z,-3.3
2019-01-25T02:06:58.687Z,-3.4
2019-01-25T02:07:59.400Z,-3.3
2019-01-25T02:09:00.127Z,-3.3
2019-01-25T02:10:00.845Z,-3.4
2019-01-25T02:11:01.551Z,-3.3
2019-01-25T02:12:02.265Z,-3.3
2019-01-25T02:13:02.991Z,-3.3
2019-01-25T02:14:03.701Z,-3.3
2019-01-25T02:15:04.520Z,-3.3
2019-01-25T02:16:05.221Z,-3.4
2019-01-25T02:17:05.957Z,-3.3
2019-01-25T02:18:06.674Z,-3.4
2019-01-25T02:19:07.386Z,-3.3
2019-01-25T02:20:08.108Z,-3.3
2019-01-25T02:21:08.819Z,-3.3
2019-01-25T02:22:09.546Z,-3.3
2019-01-25T02:23:10.509Z,-3.4
2019-01-25T02:24:11.212Z,-3.2
2019-01-25T02:25:11.947Z,-3.3
2019-01-25T02:26:12.652Z,-3.3
2019-01-25T02:27:13.361Z,-3.3
2019-01-25T02:28:14.068Z,-3.3
2019-01-25T02:29:14.789Z,-3.4
2019-01-25T02:30:15.498Z,-3.4
2019-01-25T02:31:16.208Z,-3.4
2019-01-25T02:32:16.946Z,-3.4
2019-01-25T02:33:17.645Z,-3.4
2019-01-25T02:34:18.371Z,-3.3
2019-01-25T02:35:19.078Z,-3.4
2019-01-25T02:36:19.782Z,-3.4
2019-01-25T02:37:20.603Z,-3.4
2019-01-25T02:38:21.309Z,-3.5
2019-01-25T02:39:22.022Z,-3.4
2019-01-25T02:40:22.742Z,-3.4
2019-01-25T02:41:23.471Z,-3.4
2019-01-25T02:42:24.295Z,-3.5
2019-01-25T02:43:25.003Z,-3.4
2019-01-25T02:44:25.723Z,-3.4
2019-01-25T02:45:26.425Z,-3.5
2019-01-25T02:46:27.134Z,-3.4
2019-01-25T02:47:27.861Z,-3.4
2019-01-25T02:48:28.685Z,-3.5
2019-01-25T02:49:29.384Z,-3.4
2019-01-25T02:50:30.108Z,-3.4
2019-01-25T02:51:30.825Z,-3.4
2019-01-25T02:52:31.551Z,-3.4
2019-01-25T02:53:32.309Z,-3.4
2019-01-25T02:54:33.007Z,-3.4
2019-01-25T02:55:33.714Z,-3.4
2019-01-25T02:56:34.423Z,-3.3
2019-01-25T02:57:35.127Z,-3.4
2019-01-25T02:58:35.865Z,-3.4
2019-01-25T02:59:36.571Z,-3.4
2019-01-25T03:00:37.271Z,-3.3
2019-01-25T03:01:37.972Z,-3.4
2019-01-25T03:02:38.688Z,-3.3
2019-01-25T03:03:39.390Z,-3.4
2019-01-25T03:04:40.254Z,-3.3
2019-01-25T03:05:40.960Z,-3.4
2019-01-25T03:06:41.687Z,-3.4
2019-01-25T03:07:42.413Z,-3.4
2019-01-25T03:08:43.118Z,-3.4
2019-01-25T03:09:43.878Z,-3.4
2019-01-25T03:10:47.301Z,-3.4
2019-01-25T03:11:45.246Z,-3.3
2019-01-25T03:12:45.970Z,-3.3
2019-01-25T03:13:46.654Z,-3.4
2019-01-25T03:14:47.367Z,-3.4
2019-01-25T03:15:48.222Z,-3.4
2019-01-25T03:16:48.933Z,-3.5
2019-01-25T03:17:49.640Z,-3.3
2019-01-25T03:18:50.372Z,-3.3
2019-01-25T03:19:51.077Z,-3.4
2019-01-25T03:20:51.889Z,-3.4
2019-01-25T03:21:52.794Z,-3.4
2019-01-25T03:22:53.571Z,-3.3
2019-01-25T03:23:54.380Z,-3.4
2019-01-25T03:24:55.826Z,-3.4
2019-01-25T03:25:56.923Z,-3.4
2019-01-25T03:26:57.832Z,-3.4
2019-01-25T03:27:58.579Z,-3.3
2019-01-25T03:28:59.455Z,-3.4
2019-01-25T03:30:00.228Z,-3.4
2019-01-25T03:31:00.909Z,-3.4
2019-01-25T03:32:01.607Z,-3.4
2019-01-25T03:33:02.309Z,-3.4
2019-01-25T03:34:03.013Z,-3.4
2019-01-25T03:35:03.729Z,-3.5
2019-01-25T03:36:04.444Z,-3.4
2019-01-25T03:37:05.150Z,-3.4
2019-01-25T03:38:05.868Z,-3.5
2019-01-25T03:39:06.849Z,-3.6
2019-01-25T03:40:07.560Z,-3.6
2019-01-25T03:41:08.253Z,-3.6
2019-01-25T03:42:09.018Z,-3.6
2019-01-25T03:43:09.732Z,-3.6
2019-01-25T03:44:10.441Z,-3.5
2019-01-25T03:45:11.142Z,-3.6
2019-01-25T03:46:11.857Z,-3.6
2019-01-25T03:47:12.609Z,-3.5
2019-01-25T03:48:13.570Z,-3.5
2019-01-25T03:49:14.270Z,-3.5
2019-01-25T03:50:14.973Z,-3.5
2019-01-25T03:51:15.702Z,-3.5
2019-01-25T03:52:16.402Z,-3.5
2019-01-25T03:53:17.128Z,-3.5
2019-01-25T03:54:17.840Z,-3.5
2019-01-25T03:55:18.549Z,-3.5
2019-01-25T03:56:19.264Z,-3.6
2019-01-25T03:57:19.969Z,-3.5
2019-01-25T03:58:20.691Z,-3.5
2019-01-25T03:59:21.414Z,-3.6
2019-01-25T04:00:22.112Z,-3.5
2019-01-25T04:01:22.827Z,-3.6
2019-01-25T04:02:23.554Z,-3.6
2019-01-25T04:03:25.303Z,-3.6
2019-01-25T04:04:26.005Z,-3.6
2019-01-25T04:05:26.813Z,-3.6
2019-01-25T04:06:27.526Z,-3.6
2019-01-25T04:07:28.235Z,-3.6
2019-01-25T04:08:29.226Z,-3.5
2019-01-25T04:09:29.924Z,-3.5
2019-01-25T04:10:30.629Z,-3.6
2019-01-25T04:11:31.343Z,-3.5
2019-01-25T04:12:32.065Z,-3.5
2019-01-25T04:13:32.765Z,-3.5
2019-01-25T04:14:33.464Z,-3.5
2019-01-25T04:15:34.240Z,-3.5
2019-01-25T04:16:34.935Z,-3.4
2019-01-25T04:17:35.649Z,-3.4
2019-01-25T04:18:36.643Z,-3.4
2019-01-25T04:19:37.339Z,-3.5
2019-01-25T04:20:38.050Z,-3.3
2019-01-25T04:21:38.759Z,-3.4
2019-01-25T04:22:39.486Z,-3.4
2019-01-25T04:23:40.203Z,-3.4
2019-01-25T04:24:40.898Z,-3.4
2019-01-25T04:25:41.624Z,-3.4
2019-01-25T04:26:42.318Z,-3.5
2019-01-25T04:27:43.032Z,-3.4
2019-01-25T04:28:43.831Z,-3.3
2019-01-25T04:29:44.549Z,-3.4
2019-01-25T04:30:45.268Z,-3.4
2019-01-25T04:31:45.981Z,-3.4
2019-01-25T04:32:46.709Z,-3.4
2019-01-25T04:33:47.546Z,-3.4
2019-01-25T04:34:48.254Z,-3.3
2019-01-25T04:35:48.957Z,-3.3
2019-01-25T04:36:49.680Z,-3.4
2019-01-25T04:37:50.402Z,-3.4
2019-01-25T04:38:51.126Z,-3.3
2019-01-25T04:39:51.846Z,-3.3
2019-01-25T04:40:52.555Z,-3.4
2019-01-25T04:41:53.315Z,-3.4
2019-01-25T04:42:54.036Z,-3.4
2019-01-25T04:43:54.748Z,-3.3
2019-01-25T04:44:55.460Z,-3.3
2019-01-25T04:45:56.174Z,-3.3
2019-01-25T04:46:57.002Z,-3.3
2019-01-25T04:47:57.734Z,-3.3
2019-01-25T04:48:58.456Z,-3.3
2019-01-25T04:49:59.170Z,-3.4
2019-01-25T04:50:59.886Z,-3.4
2019-01-25T04:52:00.585Z,-3.4
2019-01-25T04:53:01.293Z,-3.5
2019-01-25T04:54:02.001Z,-3.4
2019-01-25T04:55:02.710Z,-3.4
2019-01-25T04:56:03.417Z,-3.4
2019-01-25T04:57:04.275Z,-3.3
2019-01-25T04:58:04.991Z,-3.4
2019-01-25T04:59:05.708Z,-3.3
2019-01-25T05:00:06.416Z,-3.5
2019-01-25T05:01:07.128Z,-3.6
2019-01-25T05:02:07.935Z,-3.6
2019-01-25T05:03:08.882Z,-3.5
2019-01-25T05:04:09.600Z,-3.6
2019-01-25T05:05:10.316Z,-3.6
2019-01-25T05:06:11.009Z,-3.6
2019-01-25T05:07:11.760Z,-3.5
2019-01-25T05:08:12.472Z,-3.5
2019-01-25T05:09:13.240Z,-3.5
2019-01-25T05:10:13.953Z,-3.5
2019-01-25T05:11:19.697Z,-3.5
2019-01-25T05:12:15.480Z,-3.5
2019-01-25T05:13:16.186Z,-3.5
2019-01-25T05:14:16.886Z,-3.5
2019-01-25T05:15:17.599Z,-3.5
2019-01-25T05:16:18.307Z,-3.5
2019-01-25T05:17:19.024Z,-3.5
2019-01-25T05:18:19.739Z,-3.5
2019-01-25T05:19:20.450Z,-3.4
2019-01-25T05:20:21.155Z,-3.4
2019-01-25T05:21:21.861Z,-3.3
2019-01-25T05:22:22.575Z,-3.4
2019-01-25T05:23:23.280Z,-3.4
2019-01-25T05:24:24.035Z,-3.3
2019-01-25T05:25:24.990Z,-3.3
2019-01-25T05:26:25.701Z,-3.3
2019-01-25T05:27:26.399Z,-3.3
2019-01-25T05:28:27.115Z,-3.3
2019-01-25T05:29:27.820Z,-3.4
2019-01-25T05:30:28.539Z,-3.3
2019-01-25T05:31:29.247Z,-3.3
2019-01-25T05:32:29.949Z,-3.3
2019-01-25T05:33:30.664Z,-3.3
2019-01-25T05:34:31.514Z,-3.3
2019-01-25T05:35:32.224Z,-3.3
2019-01-25T05:36:33.178Z,-3.2
2019-01-25T05:37:33.885Z,-3.3
2019-01-25T05:38:34.584Z,-3.2
2019-01-25T05:39:35.280Z,-3.3
2019-01-25T05:40:36.036Z,-3.3
2019-01-25T05:41:36.743Z,-3.2
2019-01-25T05:42:37.446Z,-3.1
2019-01-25T05:43:38.154Z,-3.1
2019-01-25T05:44:38.876Z,-3.2
2019-01-25T05:45:39.582Z,-3.2
2019-01-25T05:46:40.339Z,-3.1
2019-01-25T05:47:41.043Z,-3.1
2019-01-25T05:48:41.752Z,-3.1
2019-01-25T05:49:42.471Z,-3.1
2019-01-25T05:50:43.179Z,-3.2
2019-01-25T05:51:43.939Z,-3.1
2019-01-25T05:52:44.642Z,-3.2
2019-01-25T05:53:45.364Z,-3.2
2019-01-25T05:54:46.059Z,-3.1
2019-01-25T05:55:46.763Z,-3.2
2019-01-25T05:56:47.527Z,-3.2
2019-01-25T05:57:48.229Z,-3.2
2019-01-25T05:58:48.943Z,-3.2
2019-01-25T05:59:49.635Z,-3.3
2019-01-25T06:00:50.359Z,-3.4
2019-01-25T06:01:51.062Z,-3.3
2019-01-25T06:02:51.777Z,-3.3
2019-01-25T06:03:52.488Z,-3.3
2019-01-25T06:04:53.192Z,-3.3
2019-01-25T06:05:53.897Z,-3.3
2019-01-25T06:06:54.614Z,-3.3
2019-01-25T06:07:55.423Z,-3.3
2019-01-25T06:08:56.123Z,-3.4
2019-01-25T06:09:56.834Z,-3.3
2019-01-25T06:10:57.544Z,-3.3
2019-01-25T06:11:58.268Z,-3.3
2019-01-25T06:12:58.979Z,-3.3
2019-01-25T06:13:59.680Z,-3.3
2019-01-25T06:15:00.407Z,-3.2
2019-01-25T06:16:01.114Z,-3.3
2019-01-25T06:17:01.836Z,-3.2
2019-01-25T06:18:02.538Z,-3.2
2019-01-25T06:19:03.281Z,-3.2
2019-01-25T06:20:03.986Z,-3.2
2019-01-25T06:21:04.696Z,-3.3
2019-01-25T06:22:05.397Z,-3.3
2019-01-25T06:23:06.106Z,-3.2
2019-01-25T06:24:06.872Z,-3.2
2019-01-25T06:25:07.588Z,-3.3
2019-01-25T06:26:08.297Z,-3.3
2019-01-25T06:27:09.000Z,-3.2
2019-01-25T06:28:09.707Z,-3.2
2019-01-25T06:29:10.420Z,-3.3
2019-01-25T06:30:11.123Z,-3.3
2019-01-25T06:31:11.898Z,-3.3
2019-01-25T06:32:12.610Z,-3.3
2019-01-25T06:33:13.325Z,-3.3
2019-01-25T06:34:14.021Z,-3.2
2019-01-25T06:35:14.747Z,-3.2
2019-01-25T06:36:15.617Z,-3.2
2019-01-25T06:37:16.343Z,-3.3
2019-01-25T06:38:17.055Z,-3.2
2019-01-25T06:39:17.749Z,-3.1
2019-01-25T06:40:18.472Z,-3.1
2019-01-25T06:41:19.300Z,-3.2
2019-01-25T06:42:20.014Z,-3.2
2019-01-25T06:43:20.718Z,-3.1
2019-01-25T06:44:21.432Z,-3.1
2019-01-25T06:45:22.133Z,-3.1
2019-01-25T06:46:22.841Z,-3.1
2019-01-25T06:47:23.549Z,-3.0
2019-01-25T06:48:24.249Z,-3.2
2019-01-25T06:49:25.011Z,-3.2
2019-01-25T06:50:25.726Z,-3.1
2019-01-25T06:51:26.421Z,-3.1
2019-01-25T06:52:27.136Z,-3.1
2019-01-25T06:53:27.836Z,-3.1
2019-01-25T06:54:28.643Z,-3.2
2019-01-25T06:55:29.354Z,-3.1
2019-01-25T06:56:30.317Z,-3.2
2019-01-25T06:57:31.018Z,-3.2
2019-01-25T06:58:31.759Z,-3.1
2019-01-25T06:59:32.471Z,-3.2
2019-01-25T07:00:33.178Z,-3.1
2019-01-25T07:01:33.906Z,-3.1
2019-01-25T07:02:34.611Z,-3.1
2019-01-25T07:03:35.419Z,-3.1
2019-01-25T07:04:36.140Z,-3.1
2019-01-25T07:05:36.841Z,-3.0
2019-01-25T07:06:37.545Z,-3.0
2019-01-25T07:07:38.259Z,-3.0
2019-01-25T07:08:38.977Z,-3.0
2019-01-25T07:09:39.737Z,-3.0
2019-01-25T07:10:40.711Z,-3.0
2019-01-25T07:11:42.317Z,-3.0
2019-01-25T07:12:42.118Z,-3.0
2019-01-25T07:13:42.837Z,-3.1
2019-01-25T07:14:43.540Z,-3.0
2019-01-25T07:15:44.257Z,-3.0
2019-01-25T07:16:45.065Z,-3.1
2019-01-25T07:17:45.790Z,-3.0
2019-01-25T07:18:46.510Z,-3.0
2019-01-25T07:19:47.207Z,-3.0
2019-01-25T07:20:47.920Z,-3.1
2019-01-25T07:21:48.675Z,-3.0
2019-01-25T07:22:49.386Z,-3.1
2019-01-25T07:23:50.094Z,-3.0
2019-01-25T07:24:56.926Z,-3.1
2019-01-25T07:25:51.518Z,-3.0
2019-01-25T07:26:52.238Z,-3.0
2019-01-25T07:27:53.210Z,-3.0
2019-01-25T07:28:54.271Z,-3.0
2019-01-25T07:29:55.117Z,-3.0
2019-01-25T07:30:55.848Z,-3.1
2019-01-25T07:31:56.769Z,-3.1
2019-01-25T07:32:57.606Z,-3.2
2019-01-25T07:33:58.364Z,-3.1
2019-01-25T07:34:59.141Z,-3.1
2019-01-25T07:35:59.787Z,-3.0
2019-01-25T07:37:00.609Z,-3.1
2019-01-25T07:38:01.316Z,-3.1
2019-01-25T07:39:02.033Z,-3.1
2019-01-25T07:40:02.753Z,-3.1
2019-01-25T07:41:03.488Z,-3.1
2019-01-25T07:42:04.273Z,-3.2
2019-01-25T07:43:04.977Z,-3.1
2019-01-25T07:44:05.672Z,-3.1
2019-01-25T07:45:07.081Z,-3.1
2019-01-25T07:46:07.862Z,-3.2
2019-01-25T07:47:08.601Z,-3.1
2019-01-25T07:48:09.353Z,-3.1
2019-01-25T07:49:10.050Z,-3.1
2019-01-25T07:50:11.053Z,-3.2
2019-01-25T07:51:11.730Z,-3.0
2019-01-25T07:52:12.430Z,-3.1
2019-01-25T07:53:13.181Z,-3.1
2019-01-25T07:54:13.848Z,-3.1
2019-01-25T07:55:14.570Z,-3.0
2019-01-25T07:56:15.278Z,-3.0
2019-01-25T07:57:16.017Z,-3.0
2019-01-25T07:58:16.711Z,-3.0
2019-01-25T07:59:17.433Z,-3.0
2019-01-25T08:00:18.152Z,-2.9
2019-01-25T08:01:18.856Z,-3.0
2019-01-25T08:02:19.552Z,-3.1
2019-01-25T08:03:20.266Z,-3.0
2019-01-25T08:04:20.991Z,-3.0
2019-01-25T08:05:21.721Z,-2.9
2019-01-25T08:06:22.418Z,-2.9
2019-01-25T08:07:23.161Z,-2.9
2019-01-25T08:08:24.010Z,-2.9
2019-01-25T08:09:24.551Z,-2.9
2019-01-25T08:10:25.289Z,-2.9
2019-01-25T08:11:25.984Z,-2.9
2019-01-25T08:12:26.694Z,-2.9
2019-01-25T08:13:27.403Z,-2.8
2019-01-25T08:14:28.128Z,-2.8
2019-01-25T08:15:29.086Z,-2.9
2019-01-25T08:16:29.562Z,-2.9
2019-01-25T08:17:30.276Z,-2.9
2019-01-25T08:18:30.984Z,-2.9
2019-01-25T08:19:31.696Z,-2.9
2019-01-25T08:20:32.420Z,-2.9
2019-01-25T08:21:33.113Z,-2.9
2019-01-25T08:22:33.869Z,-2.9
2019-01-25T08:23:34.553Z,-2.9
2019-01-25T08:24:35.262Z,-2.9
2019-01-25T08:25:36.744Z,-2.8
2019-01-25T08:26:39.060Z,-2.9
2019-01-25T08:27:40.246Z,-2.9
2019-01-25T08:28:41.097Z,-2.9
2019-01-25T08:29:41.833Z,-2.9
2019-01-25T08:30:42.562Z,-2.9
2019-01-25T08:31:43.257Z,-2.9
2019-01-25T08:32:43.974Z,-2.9
2019-01-25T08:33:44.725Z,-2.9
2019-01-25T08:34:45.421Z,-2.9
2019-01-25T08:35:46.111Z,-2.9
2019-01-25T08:36:47.122Z,-2.9
2019-01-25T08:37:47.785Z,-2.9
2019-01-25T08:38:48.516Z,-2.9
2019-01-25T08:39:49.280Z,-2.9
2019-01-25T08:40:49.997Z,-2.9
2019-01-25T08:41:50.705Z,-2.8
2019-01-25T08:42:51.415Z,-2.7
2019-01-25T08:43:52.137Z,-2.9
2019-01-25T08:44:52.857Z,-2.7
2019-01-25T08:45:53.552Z,-2.9
2019-01-25T08:46:54.258Z,-2.8
2019-01-25T08:47:54.993Z,-2.8
2019-01-25T08:48:55.741Z,-2.8
2019-01-25T08:49:57.936Z,-2.9
2019-01-25T08:50:57.109Z,-2.9
2019-01-25T08:51:57.823Z,-2.9
2019-01-25T08:52:58.530Z,-2.7
2019-01-25T08:53:59.259Z,-2.9
2019-01-25T08:55:00.342Z,-2.9
2019-01-25T08:56:01.027Z,-2.9
2019-01-25T08:57:01.864Z,-2.9
2019-01-25T08:58:02.565Z,-2.8
2019-01-25T08:59:03.277Z,-2.8
2019-01-25T09:00:04.027Z,-2.8
2019-01-25T09:01:04.743Z,-2.7
2019-01-25T09:02:05.462Z,-2.8
2019-01-25T09:03:06.453Z,-2.9
2019-01-25T09:04:07.238Z,-2.8
2019-01-25T09:05:08.337Z,-2.9
2019-01-25T09:06:09.055Z,-2.9
2019-01-25T09:07:09.765Z,-2.9
2019-01-25T09:08:10.476Z,-2.9
2019-01-25T09:09:11.181Z,-2.8
2019-01-25T09:10:11.887Z,-2.8
2019-01-25T09:11:12.598Z,-2.7
2019-01-25T09:12:13.317Z,-2.8
2019-01-25T09:13:14.021Z,-2.7
2019-01-25T09:14:14.744Z,-2.7
2019-01-25T09:15:15.734Z,-2.9
2019-01-25T09:16:16.441Z,-2.8
2019-01-25T09:17:17.249Z,-2.8
2019-01-25T09:18:17.962Z,-2.7
2019-01-25T09:19:18.708Z,-2.7
2019-01-25T09:20:19.702Z,-2.7
2019-01-25T09:21:20.405Z,-2.7
2019-01-25T09:22:21.226Z,-2.7
2019-01-25T09:23:21.936Z,-2.7
2019-01-25T09:24:22.651Z,-2.7
2019-01-25T09:25:23.601Z,-2.6
2019-01-25T09:26:24.333Z,-2.6
2019-01-25T09:27:25.188Z,-2.5
2019-01-25T09:28:25.914Z,-2.6
2019-01-25T09:29:26.641Z,-2.6
2019-01-25T09:30:27.353Z,-2.6
2019-01-25T09:31:28.064Z,-2.7
2019-01-25T09:32:28.933Z,-2.7
2019-01-25T09:33:29.645Z,-2.8
2019-01-25T09:34:30.363Z,-2.7
2019-01-25T09:35:31.083Z,-2.7
2019-01-25T09:36:31.807Z,-2.6
2019-01-25T09:37:32.544Z,-2.6
2019-01-25T09:38:34.223Z,-2.5
2019-01-25T09:39:34.013Z,-2.4
2019-01-25T09:40:34.728Z,-2.6
2019-01-25T09:41:35.453Z,-2.4
2019-01-25T09:42:36.167Z,-2.4
2019-01-25T09:43:36.891Z,-2.3
2019-01-25T09:44:37.701Z,-2.3
2019-01-25T09:45:38.412Z,-2.2
2019-01-25T09:46:39.128Z,-2.1
2019-01-25T09:47:39.836Z,-2.2
2019-01-25T09:48:40.583Z,-2.3
2019-01-25T09:49:41.384Z,-2.3
2019-01-25T09:50:42.108Z,-2.2
2019-01-25T09:51:42.837Z,-2.2
2019-01-25T09:52:43.546Z,-2.3
2019-01-25T09:53:44.282Z,-2.3
2019-01-25T09:54:45.088Z,-2.2
2019-01-25T09:55:45.803Z,-2.2
2019-01-25T09:56:46.780Z,-2.3
2019-01-25T09:57:47.486Z,-2.1
2019-01-25T09:58:48.203Z,-2.1
2019-01-25T09:59:48.921Z,-2.1
2019-01-25T10:00:49.636Z,-2.2
2019-01-25T10:01:50.341Z,-2.1
2019-01-25T10:02:51.053Z,-2.1
2019-01-25T10:03:51.767Z,-2.1
2019-01-25T10:04:53.959Z,-2.1
2019-01-25T10:05:53.192Z,-2.1
2019-01-25T10:06:53.905Z,-2.1
2019-01-25T10:07:54.622Z,-2.2
2019-01-25T10:08:55.329Z,-2.1
2019-01-25T10:09:56.044Z,-2.1
2019-01-25T10:10:57.445Z,-2.1
2019-01-25T10:11:58.166Z,-2.1
2019-01-25T10:12:58.882Z,-2.1
2019-01-25T10:13:59.590Z,-2.2
2019-01-25T10:15:00.300Z,-2.2
2019-01-25T10:16:01.042Z,-2.2
2019-01-25T10:17:01.726Z,-2.2
2019-01-25T10:18:02.686Z,-2.2
2019-01-25T10:19:03.409Z,-2.2
2019-01-25T10:20:04.121Z,-2.2
2019-01-25T10:21:04.936Z,-2.1
2019-01-25T10:22:05.656Z,-2.2
2019-01-25T10:23:06.378Z,-2.0
2019-01-25T10:24:07.098Z,-2.0
2019-01-25T10:25:07.837Z,-1.9
2019-01-25T10:26:08.645Z,-1.7
2019-01-25T10:27:09.363Z,-1.8
2019-01-25T10:28:10.073Z,-1.9
2019-01-25T10:29:10.801Z,-1.9
2019-01-25T10:30:11.521Z,-1.9
2019-01-25T10:31:12.234Z,-1.8
2019-01-25T10:32:12.955Z,-1.9
2019-01-25T10:33:13.673Z,-1.9
2019-01-25T10:34:14.386Z,-1.9
2019-01-25T10:35:15.104Z,-2.0
2019-01-25T10:36:15.835Z,-1.9
2019-01-25T10:37:16.537Z,-1.8
2019-01-25T10:38:17.262Z,-2.0
2019-01-25T10:39:17.982Z,-2.0
2019-01-25T10:40:18.698Z,-2.1
2019-01-25T10:41:19.411Z,-2.1
2019-01-25T10:42:20.117Z,-2.1
2019-01-25T10:43:20.854Z,-2.0
2019-01-25T10:44:21.563Z,-2.0
2019-01-25T10:45:22.272Z,-1.8
2019-01-25T10:46:22.983Z,-1.9
2019-01-25T10:47:23.746Z,-1.8
2019-01-25T10:48:24.729Z,-1.6
2019-01-25T10:49:25.541Z,-1.5
2019-01-25T10:50:26.258Z,-1.6
2019-01-25T10:51:27.088Z,-1.6
2019-01-25T10:52:27.791Z,-1.6
2019-01-25T10:53:28.503Z,-1.4
2019-01-25T10:54:29.214Z,-1.4
2019-01-25T10:55:30.177Z,-1.2
2019-01-25T10:56:31.042Z,-1.2
2019-01-25T10:57:31.749Z,-1.2
2019-01-25T10:58:32.463Z,-1.1
2019-01-25T10:59:33.180Z,-1.1
2019-01-25T11:00:33.888Z,-1.2
2019-01-25T11:01:34.651Z,-1.2
2019-01-25T11:02:35.414Z,-1.1
2019-01-25T11:03:36.079Z,-1.1
2019-01-25T11:04:36.794Z,-1.1
2019-01-25T11:05:37.781Z,-1.1
2019-01-25T11:06:38.496Z,-1.2
2019-01-25T11:07:39.230Z,-1.2
2019-01-25T11:08:39.937Z,-1.0
2019-01-25T11:09:40.643Z,-1.3
2019-01-25T11:10:41.361Z,-1.3
2019-01-25T11:11:42.074Z,-1.4
2019-01-25T11:12:43.182Z,-1.3
2019-01-25T11:13:43.573Z,-1.2
2019-01-25T11:14:44.277Z,-1.2
2019-01-25T11:15:44.991Z,-1.3
2019-01-25T11:16:45.710Z,-1.2
2019-01-25T11:17:46.411Z,-1.2
2019-01-25T11:18:47.253Z,-1.2
2019-01-25T11:19:47.956Z,-1.3
2019-01-25T11:20:48.668Z,-1.3
2019-01-25T11:21:49.376Z,-1.2
2019-01-25T11:22:50.642Z,-1.4
2019-01-25T11:23:51.340Z,-1.3
2019-01-25T11:24:52.048Z,-1.3
2019-01-25T11:25:52.775Z,-1.2
2019-01-25T11:26:53.750Z,-1.4
2019-01-25T11:27:54.768Z,-1.3
2019-01-25T11:28:55.823Z,-1.4
2019-01-25T11:29:56.526Z,-1.6
2019-01-25T11:30:57.234Z,-1.5
2019-01-25T11:31:57.961Z,-1.4
2019-01-25T11:32:58.686Z,-1.4
2019-01-25T11:33:59.412Z,-1.4
2019-01-25T11:35:00.278Z,-1.3
2019-01-25T11:36:00.997Z,-1.2
2019-01-25T11:37:01.970Z,-1.2
2019-01-25T11:38:02.682Z,-1.3
2019-01-25T11:39:03.402Z,-1.3
2019-01-25T11:40:04.134Z,-1.2
2019-01-25T11:41:05.851Z,-1.1
2019-01-25T11:42:06.561Z,-1.2
2019-01-25T11:43:08.811Z,-1.2
2019-01-25T11:44:08.328Z,-1.2
2019-01-25T11:45:09.368Z,-1.0
2019-01-25T11:46:10.071Z,-0.9
2019-01-25T11:47:10.789Z,-0.8
2019-01-25T11:48:11.486Z,-0.5
2019-01-25T11:49:12.203Z,-0.4
2019-01-25T11:50:12.912Z,-0.2
2019-01-25T11:51:13.634Z,-0.1
2019-01-25T11:52:14.368Z,-0.4
2019-01-25T11:53:15.611Z,-0.3
2019-01-25T11:54:16.337Z,-0.3
2019-01-25T11:55:17.307Z,-0.2
2019-01-25T11:56:18.013Z,-0.2
2019-01-25T11:57:18.726Z,-0.4
2019-01-25T11:58:19.448Z,-0.5
2019-01-25T11:59:20.176Z,-0.4
2019-01-25T12:00:20.887Z,-0.7
2019-01-25T12:01:21.600Z,-0.8
2019-01-25T12:02:22.311Z,-0.7
2019-01-25T12:03:23.026Z,-0.7
2019-01-25T12:04:23.743Z,-0.6
2019-01-25T12:05:24.464Z,-0.6
2019-01-25T12:06:25.168Z,-0.5
2019-01-25T12:07:25.888Z,-0.4
2019-01-25T12:08:26.609Z,-0.5
2019-01-25T12:09:27.330Z,-0.3
2019-01-25T12:10:28.049Z,-0.5
2019-01-25T12:11:28.751Z,-0.5
2019-01-25T12:12:29.483Z,-0.5
2019-01-25T12:13:30.195Z,-0.4
2019-01-25T12:14:31.023Z,-0.2
2019-01-25T12:15:31.737Z,-0.3
2019-01-25T12:16:32.693Z,-0.3
2019-01-25T12:17:33.419Z,-0.6
2019-01-25T12:18:34.465Z,-0.9
2019-01-25T12:19:35.229Z,-0.8
2019-01-25T12:20:35.928Z,-0.7
2019-01-25T12:21:36.621Z,-0.6
2019-01-25T12:22:37.386Z,-0.7
2019-01-25T12:23:38.106Z,-0.6
2019-01-25T12:24:38.917Z,-0.6
2019-01-25T12:25:39.622Z,-0.7
2019-01-25T12:26:40.341Z,-0.6
2019-01-25T12:27:41.062Z,-0.9
2019-01-25T12:28:41.779Z,-0.9
2019-01-25T12:29:42.591Z,-1.1
2019-01-25T12:30:43.308Z,-1.1
2019-01-25T12:31:44.029Z,-1.1
2019-01-25T12:32:44.729Z,-1.1
2019-01-25T12:33:45.451Z,-1.0
2019-01-25T12:34:46.311Z,-1.3
2019-01-25T12:35:47.019Z,-1.3
2019-01-25T12:36:47.740Z,-1.2
2019-01-25T12:37:48.576Z,-1.0
2019-01-25T12:38:49.286Z,-1.1
2019-01-25T12:39:49.993Z,-0.9
2019-01-25T12:40:50.709Z,-1.0
2019-01-25T12:41:51.586Z,-1.0
2019-01-25T12:42:52.293Z,-0.9
2019-01-25T12:43:53.266Z,-0.8
2019-01-25T12:44:53.964Z,-0.9
2019-01-25T12:45:54.669Z,-0.8
2019-01-25T12:46:55.506Z,-0.8
2019-01-25T12:47:56.212Z,-0.8
2019-01-25T12:48:56.934Z,-0.8
2019-01-25T12:49:57.650Z,-0.7
2019-01-25T12:50:58.367Z,-0.6
2019-01-25T12:51:59.078Z,-0.5
2019-01-25T12:52:59.816Z,-0.5
2019-01-25T12:54:00.603Z,-0.6
2019-01-25T12:55:01.312Z,-0.6
2019-01-25T12:56:02.027Z,-0.8
2019-01-25T12:57:02.742Z,-0.9
2019-01-25T12:58:03.450Z,-0.9
2019-01-25T12:59:04.157Z,-0.9
2019-01-25T13:00:04.874Z,-0.8
2019-01-25T13:01:06.213Z,-0.8
2019-01-25T13:02:06.289Z,-0.6
2019-01-25T13:03:06.999Z,-0.8
2019-01-25T13:04:07.713Z,-0.8
2019-01-25T13:05:08.435Z,-0.8
2019-01-25T13:06:09.149Z,-0.8
2019-01-25T13:07:09.867Z,-0.8
2019-01-25T13:08:10.579Z,-0.8
2019-01-25T13:09:11.292Z,-0.8
2019-01-25T13:10:12.004Z,-0.8
2019-01-25T13:11:12.858Z,-0.9
2019-01-25T13:12:13.570Z,-0.9
2019-01-25T13:13:14.286Z,-0.8
2019-01-25T13:14:15.001Z,-0.9
2019-01-25T13:15:15.715Z,-0.8
2019-01-25T13:16:16.483Z,-0.6
2019-01-25T13:17:17.192Z,-0.7
2019-01-25T13:18:17.910Z,-0.5
2019-01-25T13:19:18.625Z,-0.5
2019-01-25T13:20:19.359Z,-0.6
2019-01-25T13:21:20.177Z,-0.7
2019-01-25T13:22:21.022Z,-0.8
2019-01-25T13:23:21.761Z,-0.9
2019-01-25T13:24:22.484Z,-0.9
2019-01-25T13:25:23.193Z,-0.9
2019-01-25T13:26:24.058Z,-0.9
2019-01-25T13:27:24.767Z,-0.7
2019-01-25T13:28:25.479Z,-0.7